createdAt,value
2023-02-05T00:00:56.065Z,20.17
2023-02-05T00:01:56.109Z,20.20
2023-02-05T00:02:56.075Z,20.13
2023-02-05T00:03:56.126Z,20.15
2023-02-05T00:04:56.124Z,20.17
2023-02-05T00:05:56.119Z,20.12
2023-02-05T00:06:56.155Z,20.13
2023-02-05T00:07:56.148Z,20.17
2023-02-05T00:08:56.211Z,20.24
2023-02-05T00:09:56.219Z,20.20
2023-02-05T00:10:56.168Z,20.17
2023-02-05T00:11:56.210Z,20.20
2023-02-05T00:12:56.199Z,20.16
2023-02-05T00:13:56.236Z,20.12
2023-02-05T00:14:56.248Z,20.18
2023-02-05T00:15:56.247Z,20.18
2023-02-05T00:16:57.560Z,20.18
2023-02-05T00:17:56.298Z,20.12
2023-02-05T00:18:56.343Z,20.14
2023-02-05T00:19:56.342Z,20.20
2023-02-05T00:20:56.349Z,20.18
2023-02-05T00:21:56.373Z,20.14
2023-02-05T00:22:56.409Z,20.13
2023-02-05T00:23:56.415Z,20.14
2023-02-05T00:24:56.408Z,20.23
2023-02-05T00:25:56.413Z,20.21
2023-02-05T00:26:56.432Z,20.18
2023-02-05T00:27:56.505Z,20.18
2023-02-05T00:28:56.466Z,20.18
2023-02-05T00:29:56.503Z,20.18
2023-02-05T00:30:56.589Z,20.27
2023-02-05T00:31:56.497Z,20.21
2023-02-05T00:32:56.524Z,20.26
2023-02-05T00:33:56.511Z,20.12
2023-02-05T00:34:56.585Z,20.18
2023-02-05T00:35:56.543Z,20.15
2023-02-05T00:36:56.600Z,20.15
2023-02-05T00:37:56.583Z,20.18
2023-02-05T00:38:56.612Z,20.27
2023-02-05T00:39:56.630Z,20.20
2023-02-05T00:40:56.652Z,20.20
2023-02-05T00:41:56.698Z,20.23
2023-02-05T00:42:56.674Z,20.24
2023-02-05T00:43:56.693Z,20.23
2023-02-05T00:44:56.774Z,20.26
2023-02-05T00:45:56.775Z,20.30
2023-02-05T00:46:56.781Z,20.20
2023-02-05T00:47:56.782Z,20.24
2023-02-05T00:48:56.811Z,20.21
2023-02-05T00:49:56.792Z,20.26
2023-02-05T00:50:56.828Z,20.23
2023-02-05T00:51:56.844Z,20.29
2023-02-05T00:52:56.861Z,20.30
2023-02-05T00:53:56.858Z,20.21
2023-02-05T00:54:56.882Z,20.18
2023-02-05T00:55:56.831Z,20.23
2023-02-05T00:56:56.871Z,20.17
2023-02-05T00:57:56.910Z,20.29
2023-02-05T00:58:56.920Z,20.24
2023-02-05T00:59:56.974Z,20.29
2023-02-05T01:00:56.974Z,20.23
2023-02-05T01:01:56.976Z,20.29
2023-02-05T01:02:56.955Z,20.24
2023-02-05T01:03:56.965Z,20.18
2023-02-05T01:04:56.971Z,20.26
2023-02-05T01:05:57.048Z,20.24
2023-02-05T01:06:57.020Z,20.27
2023-02-05T01:07:57.022Z,20.26
2023-02-05T01:08:57.050Z,20.24
2023-02-05T01:09:57.039Z,20.35
2023-02-05T01:10:57.106Z,20.23
2023-02-05T01:11:57.096Z,20.21
2023-02-05T01:12:57.117Z,20.20
2023-02-05T01:13:57.120Z,20.21
2023-02-05T01:14:57.115Z,20.27
2023-02-05T01:15:57.158Z,20.18
2023-02-05T01:16:57.134Z,20.21
2023-02-05T01:17:57.131Z,20.21
2023-02-05T01:18:57.163Z,20.30
2023-02-05T01:19:57.185Z,20.33
2023-02-05T01:20:57.222Z,20.24
2023-02-05T01:21:57.220Z,20.24
2023-02-05T01:22:57.211Z,20.15
2023-02-05T01:23:57.207Z,20.24
2023-02-05T01:24:57.218Z,20.26
2023-02-05T01:25:57.244Z,20.21
2023-02-05T01:26:57.258Z,20.17
2023-02-05T01:27:57.291Z,20.21
2023-02-05T01:28:57.264Z,20.30
2023-02-05T01:29:57.327Z,20.23
2023-02-05T01:30:57.376Z,20.23
2023-02-05T01:31:57.392Z,20.33
2023-02-05T01:32:57.389Z,20.29
2023-02-05T01:33:57.344Z,20.27
2023-02-05T01:34:57.375Z,20.23
2023-02-05T01:35:57.324Z,20.29
2023-02-05T01:36:57.326Z,20.18
2023-02-05T01:37:57.343Z,20.21
2023-02-05T01:38:57.381Z,20.24
2023-02-05T01:39:57.352Z,20.11
2023-02-05T01:40:57.347Z,20.20
2023-02-05T01:41:57.404Z,20.24
2023-02-05T01:42:57.407Z,20.17
2023-02-05T01:43:57.408Z,20.18
2023-02-05T01:44:57.414Z,20.15
2023-02-05T01:45:57.432Z,20.24
2023-02-05T01:46:57.463Z,20.23
2023-02-05T01:47:57.480Z,20.30
2023-02-05T01:48:57.468Z,20.29
2023-02-05T01:49:57.467Z,20.29
2023-02-05T01:50:57.459Z,20.21
2023-02-05T01:51:57.532Z,20.23
2023-02-05T01:52:57.516Z,20.24
2023-02-05T01:53:57.510Z,20.21
2023-02-05T01:54:57.542Z,20.14
2023-02-05T01:55:57.604Z,20.17
2023-02-05T01:56:57.600Z,20.29
2023-02-05T01:57:57.607Z,20.16
2023-02-05T01:58:57.610Z,20.14
2023-02-05T01:59:57.649Z,20.20
2023-02-05T02:00:57.721Z,20.23
2023-02-05T02:01:57.743Z,20.14
2023-02-05T02:02:57.711Z,20.20
2023-02-05T02:03:57.703Z,20.18
2023-02-05T02:04:57.746Z,20.23
2023-02-05T02:05:57.725Z,20.23
2023-02-05T02:06:57.716Z,20.17
2023-02-05T02:07:57.739Z,20.16
2023-02-05T02:08:57.741Z,20.16
2023-02-05T02:09:57.755Z,20.21
2023-02-05T02:10:57.799Z,20.17
2023-02-05T02:11:57.775Z,20.24
2023-02-05T02:12:57.817Z,20.26
2023-02-05T02:13:57.821Z,20.20
2023-02-05T02:14:57.806Z,20.23
2023-02-05T02:15:57.813Z,20.21
2023-02-05T02:16:57.833Z,20.20
2023-02-05T02:17:57.848Z,20.18
2023-02-05T02:18:57.857Z,20.05
2023-02-05T02:19:57.815Z,20.05
2023-02-05T02:20:57.860Z,20.08
2023-02-05T02:21:57.843Z,20.08
2023-02-05T02:22:57.859Z,20.14
2023-02-05T02:23:57.889Z,20.14
2023-02-05T02:24:57.890Z,20.15
2023-02-05T02:25:57.882Z,20.20
2023-02-05T02:26:57.900Z,20.21
2023-02-05T02:27:57.947Z,20.18
2023-02-05T02:28:57.921Z,20.11
2023-02-05T02:29:57.963Z,20.18
2023-02-05T02:30:58.070Z,20.17
2023-02-05T02:31:57.942Z,20.08
2023-02-05T02:32:57.981Z,20.18
2023-02-05T02:33:57.975Z,20.17
2023-02-05T02:34:57.985Z,20.12
2023-02-05T02:35:57.993Z,20.10
2023-02-05T02:36:58.003Z,20.14
2023-02-05T02:37:58.021Z,20.12
2023-02-05T02:38:58.039Z,20.12
2023-02-05T02:39:58.047Z,20.08
2023-02-05T02:40:58.067Z,20.05
2023-02-05T02:41:58.117Z,20.16
2023-02-05T02:42:58.104Z,20.20
2023-02-05T02:43:58.109Z,20.17
2023-02-05T02:44:58.125Z,20.06
2023-02-05T02:45:58.149Z,20.11
2023-02-05T02:46:58.147Z,20.05
2023-02-05T02:47:58.212Z,20.11
2023-02-05T02:48:58.440Z,20.08
2023-02-05T02:49:58.197Z,20.11
2023-02-05T02:50:58.229Z,20.02
2023-02-05T02:51:58.241Z,20.02
2023-02-05T02:52:58.258Z,20.08
2023-02-05T02:53:58.318Z,20.05
2023-02-05T02:54:58.311Z,20.05
2023-02-05T02:55:58.267Z,20.12
2023-02-05T02:56:58.329Z,20.16
2023-02-05T02:57:58.328Z,20.06
2023-02-05T02:58:58.321Z,20.08
2023-02-05T02:59:58.402Z,20.03
2023-02-05T03:00:58.451Z,20.03
2023-02-05T03:01:58.421Z,19.97
2023-02-05T03:02:58.422Z,20.06
2023-02-05T03:03:58.563Z,20.08
2023-02-05T03:04:58.441Z,20.16
2023-02-05T03:05:58.502Z,20.12
2023-02-05T03:06:58.484Z,20.12
2023-02-05T03:07:58.500Z,20.11
2023-02-05T03:08:58.518Z,20.05
2023-02-05T03:09:58.579Z,20.00
2023-02-05T03:10:58.548Z,20.09
2023-02-05T03:11:58.628Z,20.11
2023-02-05T03:12:58.589Z,20.06
2023-02-05T03:14:04.585Z,20.11
2023-02-05T03:14:59.598Z,20.08
2023-02-05T03:15:58.580Z,20.05
2023-02-05T03:16:58.561Z,20.14
2023-02-05T03:17:58.529Z,20.02
2023-02-05T03:18:58.540Z,20.00
2023-02-05T03:19:58.499Z,20.03
2023-02-05T03:20:58.523Z,19.97
2023-02-05T03:21:58.509Z,20.00
2023-02-05T03:22:58.497Z,20.08
2023-02-05T03:23:59.099Z,19.99
2023-02-05T03:24:58.427Z,19.96
2023-02-05T03:25:58.400Z,19.94
2023-02-05T03:29:58.372Z,19.99
2023-02-05T03:30:58.456Z,20.03
2023-02-05T03:31:58.415Z,19.94
2023-02-05T03:32:58.426Z,19.90
2023-02-05T03:33:58.459Z,19.91
2023-02-05T03:34:58.480Z,19.99
2023-02-05T03:35:58.485Z,19.89
2023-02-05T03:36:58.486Z,19.94
2023-02-05T03:37:58.505Z,19.88
2023-02-05T03:38:58.518Z,19.91
2023-02-05T03:39:58.540Z,19.85
2023-02-05T03:40:58.591Z,19.91
2023-02-05T03:41:58.625Z,19.97
2023-02-05T03:42:58.591Z,19.96
2023-02-05T03:43:58.646Z,19.91
2023-02-05T03:44:58.647Z,19.94
2023-02-05T03:45:58.677Z,19.91
2023-02-05T03:46:58.695Z,19.91
2023-02-05T03:47:58.732Z,19.93
2023-02-05T03:48:58.745Z,19.89
2023-02-05T03:49:58.776Z,19.99
2023-02-05T03:50:58.762Z,19.93
2023-02-05T03:51:58.766Z,19.96
2023-02-05T03:52:58.804Z,19.87
2023-02-05T03:53:58.785Z,19.88
2023-02-05T03:54:58.814Z,19.85
2023-02-05T03:55:58.835Z,19.96
2023-02-05T03:56:58.834Z,19.96
2023-02-05T03:57:58.848Z,19.85
2023-02-05T03:58:58.876Z,19.87
2023-02-05T03:59:58.914Z,19.79
2023-02-05T04:00:58.956Z,19.88
2023-02-05T04:01:58.992Z,19.94
2023-02-05T04:02:58.964Z,19.97
2023-02-05T04:03:58.969Z,19.96
2023-02-05T04:04:58.963Z,19.94
2023-02-05T04:05:59.018Z,19.91
2023-02-05T04:06:58.992Z,19.91
2023-02-05T04:07:59.008Z,19.81
2023-02-05T04:08:59.030Z,19.96
2023-02-05T04:09:59.080Z,19.93
2023-02-05T04:10:59.044Z,19.88
2023-02-05T04:11:59.095Z,19.88
2023-02-05T04:12:59.094Z,19.85
2023-02-05T04:13:59.101Z,19.79
2023-02-05T04:14:59.124Z,19.87
2023-02-05T04:15:59.144Z,19.85
2023-02-05T04:16:59.176Z,19.86
2023-02-05T04:17:59.198Z,19.76
2023-02-05T04:18:59.211Z,19.79
2023-02-05T04:19:59.174Z,19.82
2023-02-05T04:20:59.193Z,19.78
2023-02-05T04:21:59.236Z,19.84
2023-02-05T04:22:59.273Z,19.84
2023-02-05T04:23:59.275Z,19.89
2023-02-05T04:24:59.286Z,19.78
2023-02-05T04:25:59.293Z,19.82
2023-02-05T04:26:59.297Z,19.87
2023-02-05T04:27:59.343Z,19.79
2023-02-05T04:29:00.139Z,19.82
2023-02-05T04:29:59.365Z,19.85
2023-02-05T04:30:59.413Z,19.85
2023-02-05T04:31:59.398Z,19.76
2023-02-05T04:32:59.415Z,19.72
2023-02-05T04:33:59.413Z,19.75
2023-02-05T04:34:59.471Z,19.82
2023-02-05T04:35:59.505Z,19.82
2023-02-05T04:37:59.535Z,19.82
2023-02-05T04:38:59.527Z,19.76
2023-02-05T04:39:59.520Z,19.78
2023-02-05T04:40:59.572Z,19.79
2023-02-05T04:41:59.567Z,19.70
2023-02-05T04:42:59.578Z,19.85
2023-02-05T04:43:59.570Z,19.69
2023-02-05T04:44:59.607Z,19.72
2023-02-05T04:45:59.622Z,19.76
2023-02-05T04:46:59.663Z,19.81
2023-02-05T04:47:59.675Z,19.73
2023-02-05T04:48:59.655Z,19.70
2023-02-05T04:49:59.675Z,19.76
2023-02-05T04:50:59.704Z,19.79
2023-02-05T04:51:59.722Z,19.72
2023-02-05T04:52:59.702Z,19.62
2023-02-05T04:53:59.737Z,19.75
2023-02-05T04:54:59.758Z,19.70
2023-02-05T04:55:59.757Z,19.64
2023-02-05T04:56:59.760Z,19.78
2023-02-05T04:57:59.786Z,19.78
2023-02-05T04:58:59.821Z,19.66
2023-02-05T04:59:59.806Z,19.70
2023-02-05T05:00:59.812Z,19.76
2023-02-05T05:01:59.833Z,19.66
2023-02-05T05:02:59.855Z,19.72
2023-02-05T05:03:59.836Z,19.70
2023-02-05T05:04:59.900Z,19.70
2023-02-05T05:05:59.883Z,19.78
2023-02-05T05:07:26.462Z,19.76
2023-02-05T05:08:26.447Z,19.67
2023-02-05T05:09:26.493Z,19.72
2023-02-05T05:10:26.491Z,19.72
2023-02-05T05:11:26.538Z,19.78
2023-02-05T05:12:26.532Z,19.75
2023-02-05T05:13:26.585Z,19.79
2023-02-05T05:14:26.591Z,19.70
2023-02-05T05:15:26.623Z,19.64
2023-02-05T05:16:26.621Z,19.72
2023-02-05T05:17:26.647Z,19.69
2023-02-05T05:18:26.699Z,19.78
2023-02-05T05:19:26.681Z,19.70
2023-02-05T05:20:26.719Z,19.67
2023-02-05T05:21:26.733Z,19.73
2023-02-05T05:22:26.752Z,19.75
2023-02-05T05:23:26.767Z,19.73
2023-02-05T05:24:26.752Z,19.73
2023-02-05T05:25:26.773Z,19.69
2023-02-05T05:26:26.813Z,19.62
2023-02-05T05:27:26.823Z,19.67
2023-02-05T05:28:26.856Z,19.61
2023-02-05T05:29:26.844Z,19.69
2023-02-05T05:31:26.918Z,19.69
2023-02-05T05:42:27.105Z,19.57
2023-02-05T05:43:27.119Z,19.61
2023-02-05T05:44:27.146Z,19.62
2023-02-05T05:48:27.234Z,19.58
2023-02-05T05:54:27.635Z,19.67
2023-02-05T05:55:27.630Z,19.69
2023-02-05T05:56:27.700Z,19.61
2023-02-05T05:57:27.738Z,19.66
2023-02-05T05:58:27.787Z,19.46
2023-02-05T06:03:28.083Z,19.55
2023-02-05T06:07:28.353Z,19.58
2023-02-05T06:08:28.395Z,19.51
2023-02-05T06:09:28.414Z,19.53
2023-02-05T06:10:28.508Z,19.58
2023-02-05T06:11:28.544Z,19.53
2023-02-05T06:12:28.692Z,19.52
2023-02-05T06:13:28.750Z,19.53
2023-02-05T06:14:28.805Z,19.55
2023-02-05T06:15:28.849Z,19.58
2023-02-05T06:39:30.339Z,19.52
2023-02-05T06:40:30.483Z,19.66
2023-02-05T06:41:30.537Z,19.69
2023-02-05T06:42:30.572Z,19.47
2023-02-05T06:43:30.663Z,19.52
2023-02-05T06:44:30.716Z,19.53
2023-02-05T06:45:30.797Z,19.53
2023-02-05T06:46:30.883Z,19.59
2023-02-05T06:47:30.977Z,19.55
2023-02-05T06:48:31.051Z,19.58
2023-02-05T06:49:31.147Z,19.61
2023-02-05T07:09:32.408Z,19.58
2023-02-05T07:10:32.467Z,19.58
2023-02-05T07:11:32.574Z,19.56
2023-02-05T07:12:32.614Z,19.66
2023-02-05T07:13:32.664Z,19.66
2023-02-05T07:14:32.730Z,19.70
2023-02-05T07:15:33.256Z,19.61
2023-02-05T07:16:32.889Z,19.57
2023-02-05T07:17:32.958Z,19.56
2023-02-05T07:18:33.040Z,19.61
2023-02-05T07:19:33.103Z,19.60
2023-02-05T07:20:33.105Z,19.57
2023-02-05T07:21:33.205Z,19.58
2023-02-05T07:22:33.281Z,19.63
2023-02-05T07:23:33.382Z,19.61
2023-02-05T07:24:33.420Z,19.61
2023-02-05T07:25:33.878Z,19.58
2023-02-05T07:26:33.583Z,19.63
2023-02-05T07:27:33.613Z,19.56
2023-02-05T07:28:33.671Z,19.66
2023-02-05T07:29:33.748Z,19.49
2023-02-05T07:30:33.844Z,19.57
2023-02-05T07:31:34.090Z,19.58
2023-02-05T09:41:42.505Z,18.88
2023-02-05T09:42:42.569Z,18.93
2023-02-05T09:43:42.555Z,18.85
2023-02-05T09:44:42.653Z,18.98
2023-02-05T09:45:42.687Z,18.96
2023-02-05T09:46:42.770Z,18.89
2023-02-05T09:47:42.808Z,18.89
2023-02-05T09:48:42.901Z,19.03
2023-02-05T09:49:42.988Z,18.91
2023-02-05T09:50:43.013Z,18.94
2023-02-05T09:51:43.125Z,18.94
2023-02-05T09:52:43.172Z,18.94
2023-02-05T09:53:43.227Z,18.97
2023-02-05T09:54:43.314Z,18.89
2023-02-05T09:55:43.360Z,18.88
2023-02-05T09:56:43.458Z,18.85
2023-02-05T09:57:43.483Z,18.89
2023-02-05T09:58:43.597Z,18.88
2023-02-05T09:59:43.651Z,18.93
2023-02-05T10:00:43.705Z,18.91
2023-02-05T10:01:43.847Z,18.93
2023-02-05T10:02:43.857Z,18.79
2023-02-05T10:03:43.900Z,18.86
2023-02-05T10:04:44.049Z,18.91
2023-02-05T10:05:44.110Z,18.87
2023-02-05T10:06:44.138Z,18.88
2023-02-05T10:07:44.221Z,18.86
2023-02-05T10:08:44.235Z,18.91
2023-02-05T10:09:44.323Z,19.03
2023-02-05T10:10:44.390Z,19.03
2023-02-05T10:11:44.475Z,18.89
2023-02-05T10:12:44.519Z,18.83
2023-02-05T10:13:44.588Z,18.82
2023-02-05T10:14:44.682Z,18.85
2023-02-05T10:15:44.753Z,18.83
2023-02-05T10:16:44.802Z,18.82
2023-02-05T10:17:44.872Z,18.91
2023-02-05T10:18:44.973Z,18.82
2023-02-05T10:19:45.018Z,18.79
2023-02-05T10:20:45.084Z,18.88
2023-02-05T10:21:45.128Z,18.79
2023-02-05T10:22:45.180Z,18.82
2023-02-05T10:23:45.241Z,18.83
2023-02-05T10:24:45.326Z,18.82
2023-02-05T10:25:45.870Z,18.80
2023-02-05T10:26:45.463Z,18.82
2023-02-05T10:27:45.612Z,18.85
2023-02-05T10:28:45.589Z,18.83
2023-02-05T10:29:45.618Z,18.79
2023-02-05T10:30:45.951Z,18.84
2023-02-05T10:31:45.828Z,18.85
2023-02-05T10:32:45.858Z,18.82
2023-02-05T10:33:45.866Z,18.77
2023-02-05T10:34:45.949Z,18.80
2023-02-05T10:35:46.035Z,18.80
2023-02-05T10:36:46.059Z,18.91
2023-02-05T10:37:46.784Z,18.85
2023-02-05T10:38:46.188Z,18.85
2023-02-05T10:39:46.235Z,18.80
2023-02-05T10:40:46.277Z,18.91
2023-02-05T10:41:46.336Z,18.82
2023-02-05T10:43:46.472Z,18.88
2023-02-05T12:25:52.442Z,18.77
2023-02-05T12:26:52.513Z,18.77
2023-02-05T12:27:52.612Z,18.72
2023-02-05T12:28:52.649Z,18.71
2023-02-05T12:29:52.724Z,18.72
2023-02-05T12:30:52.815Z,18.68
2023-02-05T12:31:52.938Z,18.74
2023-02-05T12:32:52.888Z,18.68
2023-02-05T12:33:52.976Z,18.71
2023-02-05T12:34:53.072Z,18.69
2023-02-05T12:35:53.120Z,18.66
2023-02-05T12:36:53.179Z,18.77
2023-02-05T12:37:53.244Z,18.69
2023-02-05T12:38:53.287Z,18.65
2023-02-05T12:39:53.301Z,18.74
2023-02-05T12:40:53.415Z,18.69
2023-02-05T12:41:53.473Z,18.75
2023-02-05T12:42:53.497Z,18.71
2023-02-05T12:43:53.567Z,18.72
2023-02-05T12:44:53.656Z,18.75
2023-02-05T12:45:53.718Z,18.71
2023-02-05T12:46:53.765Z,18.66
2023-02-05T12:47:53.812Z,18.71
2023-02-05T12:48:53.864Z,18.69
2023-02-05T12:49:53.916Z,18.69
2023-02-05T12:50:53.988Z,18.60
2023-02-05T12:51:54.026Z,18.72
2023-02-05T12:52:54.083Z,18.71
2023-02-05T12:53:54.152Z,18.69
2023-02-05T12:54:54.199Z,18.72
2023-02-05T12:55:54.305Z,18.69
2023-02-05T12:56:54.348Z,18.69
2023-02-05T12:57:54.427Z,18.62
2023-02-05T12:58:54.455Z,18.65
2023-02-05T12:59:54.505Z,18.65
2023-02-05T13:00:54.657Z,18.65
2023-02-05T13:01:54.651Z,18.71
2023-02-05T13:02:54.692Z,18.59
2023-02-05T13:03:54.797Z,18.66
2023-02-05T13:04:54.796Z,18.62
2023-02-05T13:05:54.902Z,18.71
2023-02-05T13:06:54.969Z,18.69
2023-02-05T13:07:55.011Z,18.63
2023-02-05T13:08:55.031Z,18.63
2023-02-05T13:09:55.088Z,18.68
2023-02-05T13:10:55.397Z,18.72
2023-02-05T13:11:55.202Z,18.65
2023-02-05T13:12:55.247Z,18.68
2023-02-05T13:13:55.314Z,18.60
2023-02-05T13:14:55.344Z,18.63
2023-02-05T13:15:55.439Z,18.71
2023-02-05T13:16:55.508Z,18.68
2023-02-05T13:17:55.588Z,18.71
2023-02-05T13:18:55.612Z,18.63
2023-02-05T13:19:55.674Z,18.68
2023-02-05T13:20:55.728Z,18.70
2023-02-05T13:21:55.788Z,18.67
2023-02-05T13:22:55.859Z,18.61
2023-02-05T13:23:55.907Z,18.58
2023-02-05T13:24:56.010Z,18.64
2023-02-05T13:25:56.066Z,18.57
2023-02-05T13:26:56.116Z,18.58
2023-02-05T13:27:56.208Z,18.73
2023-02-05T13:28:56.240Z,18.64
2023-02-05T13:29:56.310Z,18.72
2023-02-05T13:30:56.451Z,18.69
2023-02-05T13:31:57.054Z,18.64
2023-02-05T13:32:56.532Z,18.64
2023-02-05T13:33:56.548Z,18.58
2023-02-05T13:34:56.630Z,18.72
2023-02-05T13:35:56.677Z,18.61
2023-02-05T13:36:56.758Z,18.63
2023-02-05T13:37:56.842Z,18.69
2023-02-05T13:38:56.877Z,18.72
2023-02-05T13:39:56.945Z,18.58
2023-02-05T13:40:56.995Z,18.67
2023-02-05T13:41:57.038Z,18.63
2023-02-05T13:42:57.130Z,18.64
2023-02-05T13:43:57.206Z,18.58
2023-02-05T13:44:57.268Z,18.67
2023-02-05T13:45:57.345Z,18.55
2023-02-05T13:46:57.420Z,18.64
2023-02-05T13:47:57.443Z,18.57
2023-02-05T13:48:57.535Z,18.66
2023-02-05T13:49:57.631Z,18.70
2023-02-05T13:50:57.718Z,18.63
2023-02-05T13:51:57.737Z,18.67
2023-02-05T13:52:57.795Z,18.60
2023-02-05T13:53:57.842Z,18.58
2023-02-05T13:54:57.917Z,18.63
2023-02-05T13:55:57.959Z,18.60
2023-02-05T13:56:58.373Z,18.67
2023-02-05T13:57:58.115Z,18.72
2023-02-05T13:58:58.143Z,18.55
2023-02-05T13:59:58.254Z,18.60
2023-02-05T14:00:58.414Z,18.64
2023-02-05T14:01:58.461Z,18.63
2023-02-05T14:02:58.419Z,18.64
2023-02-05T14:03:58.494Z,18.60
2023-02-05T14:04:58.529Z,18.69
2023-02-05T14:05:58.590Z,18.66
2023-02-05T14:06:58.698Z,18.64
2023-02-05T14:07:58.732Z,18.67
2023-02-05T14:08:58.817Z,18.52
2023-02-05T14:09:58.876Z,18.58
2023-02-05T14:10:58.942Z,18.69
2023-02-05T14:11:59.014Z,18.71
2023-02-05T14:12:59.031Z,18.67
2023-02-05T14:13:59.101Z,18.71
2023-02-05T14:14:59.168Z,18.73
2023-02-05T14:15:59.267Z,18.73
2023-02-05T14:16:59.287Z,18.63
2023-02-05T14:17:59.353Z,18.60
2023-02-05T14:18:59.440Z,18.61
2023-02-05T14:19:59.490Z,18.61
2023-02-05T14:20:59.567Z,18.55
2023-02-05T14:21:59.594Z,18.52
2023-02-05T14:22:59.673Z,18.50
2023-02-05T14:23:59.851Z,18.52
2023-02-05T14:24:59.770Z,18.56
2023-02-05T14:25:59.932Z,18.54
2023-02-05T14:26:59.905Z,18.70
2023-02-05T14:28:00.093Z,18.61
2023-02-05T14:29:00.026Z,18.52
2023-02-05T14:30:00.097Z,18.55
2023-02-05T14:31:00.261Z,18.46
2023-02-05T14:32:00.241Z,18.50
2023-02-05T14:33:00.306Z,18.75
2023-02-05T14:34:01.146Z,18.50
2023-02-05T14:35:00.404Z,18.55
2023-02-05T14:36:00.441Z,18.59
2023-02-05T14:37:00.506Z,18.58
2023-02-05T14:38:00.688Z,18.55
2023-02-05T14:39:00.658Z,18.53
2023-02-05T14:40:00.731Z,18.49
2023-02-05T14:41:00.777Z,18.49
2023-02-05T14:42:00.840Z,18.53
2023-02-05T14:43:11.907Z,18.61
2023-02-05T14:44:01.922Z,18.62
2023-02-05T14:45:00.945Z,18.61
2023-02-05T14:46:01.063Z,18.60
2023-02-05T14:47:01.002Z,18.58
2023-02-05T15:06:02.840Z,18.55
2023-02-05T15:13:02.434Z,18.50
2023-02-05T15:14:02.495Z,18.53
2023-02-05T15:15:02.608Z,18.52
2023-02-05T15:16:02.723Z,18.62
2023-02-05T15:17:02.725Z,18.61
2023-02-05T15:18:02.758Z,18.53
2023-02-05T15:19:02.834Z,18.56
2023-02-05T15:20:02.883Z,18.58
2023-02-05T15:21:02.924Z,18.64
2023-02-05T15:22:02.991Z,18.68
2023-02-05T15:23:03.060Z,18.65
2023-02-05T15:24:03.154Z,18.65
2023-02-05T15:25:03.241Z,18.53
2023-02-05T15:26:03.288Z,18.55
2023-02-05T15:27:03.373Z,18.49
2023-02-05T15:28:03.443Z,18.55
2023-02-05T15:29:03.490Z,18.49
2023-02-05T15:30:03.611Z,18.52
2023-02-05T15:31:03.698Z,18.40
2023-02-05T15:32:03.707Z,18.43
2023-02-05T15:33:03.822Z,18.50
2023-02-05T15:34:03.851Z,18.52
2023-02-05T15:35:03.884Z,18.53
2023-02-05T15:36:03.943Z,18.37
2023-02-05T15:37:05.588Z,18.47
2023-02-05T15:38:04.029Z,18.52
2023-02-05T15:39:04.092Z,18.49
2023-02-05T15:40:04.169Z,18.53
2023-02-05T15:41:04.211Z,18.48
2023-02-05T15:42:04.289Z,18.44
2023-02-05T15:43:04.358Z,18.56
2023-02-05T15:44:04.457Z,18.61
2023-02-05T15:45:04.508Z,18.58
2023-02-05T15:46:04.643Z,18.53
2023-02-05T15:47:04.604Z,18.46
2023-02-05T15:48:04.668Z,18.47
2023-02-05T15:49:04.727Z,18.59
2023-02-05T15:50:04.749Z,18.55
2023-02-05T15:51:04.810Z,18.56
2023-02-05T15:52:04.860Z,18.50
2023-02-05T15:53:04.876Z,18.44
2023-02-05T15:54:04.964Z,18.43
2023-02-05T15:55:05.025Z,18.59
2023-02-05T15:56:05.081Z,18.53
2023-02-05T15:57:05.103Z,18.53
2023-02-05T15:58:05.163Z,18.52
2023-02-05T15:59:05.240Z,18.50
2023-02-05T16:00:05.309Z,18.44
2023-02-05T16:01:05.368Z,18.53
2023-02-05T16:02:05.428Z,18.43
2023-02-05T18:07:12.479Z,18.44
2023-02-05T18:08:12.482Z,18.38
2023-02-05T18:09:12.631Z,18.39
2023-02-05T18:10:12.619Z,18.42
2023-02-05T18:11:12.634Z,18.35
2023-02-05T18:12:12.689Z,18.38
2023-02-05T18:13:12.733Z,18.37
2023-02-05T18:14:12.811Z,18.38
2023-02-05T18:15:12.866Z,18.47
2023-02-05T18:16:13.119Z,18.39
2023-02-05T18:17:12.957Z,18.41
2023-02-05T18:18:13.026Z,18.44
2023-02-05T18:19:13.075Z,18.37
2023-02-05T18:20:13.136Z,18.41
2023-02-05T18:22:13.230Z,18.44
2023-02-05T18:24:13.264Z,18.42
2023-02-05T18:26:13.379Z,18.33
2023-02-05T18:33:13.745Z,18.39
2023-02-05T18:38:14.026Z,18.38
2023-02-05T18:39:14.074Z,18.39
2023-02-05T18:40:14.132Z,18.35
2023-02-05T18:41:14.187Z,18.38
2023-02-05T18:42:14.258Z,18.37
2023-02-05T18:43:14.272Z,18.30
2023-02-05T18:44:14.300Z,18.35
2023-02-05T18:45:14.350Z,18.42
2023-02-05T18:46:14.424Z,18.38
2023-02-05T18:47:14.481Z,18.38
2023-02-05T18:48:14.527Z,18.37
2023-02-05T18:49:14.553Z,18.37
2023-02-05T18:50:14.578Z,18.41
2023-02-05T18:51:14.644Z,18.42
2023-02-05T18:52:14.635Z,18.47
2023-02-05T18:53:14.705Z,18.39
2023-02-05T18:54:14.810Z,18.30
2023-02-05T18:55:14.958Z,18.35
2023-02-05T18:56:14.873Z,18.48
2023-02-05T18:57:14.920Z,18.37
2023-02-05T18:58:14.944Z,18.44
2023-02-05T18:59:15.017Z,18.33
2023-02-05T19:00:15.105Z,18.41
2023-02-05T19:01:15.158Z,18.37
2023-02-05T19:02:15.209Z,18.35
2023-02-05T19:03:15.269Z,18.38
2023-02-05T19:04:15.265Z,18.35
2023-02-05T19:05:15.350Z,18.39
2023-02-05T19:06:15.383Z,18.42
2023-02-05T19:07:15.444Z,18.41
2023-02-05T19:08:15.496Z,18.37
2023-02-05T19:09:15.500Z,18.33
2023-02-05T19:10:15.579Z,18.40
2023-02-05T19:11:15.632Z,18.37
2023-02-05T19:12:15.681Z,18.39
2023-02-05T19:13:15.704Z,18.39
2023-02-05T19:14:15.747Z,18.37
2023-02-05T19:15:15.835Z,18.35
2023-02-05T19:16:15.930Z,18.45
2023-02-05T19:17:15.924Z,18.42
2023-02-05T19:18:15.982Z,18.35
2023-02-05T19:19:16.225Z,18.38
2023-02-05T19:20:16.072Z,18.44
2023-02-05T19:21:16.154Z,18.45
2023-02-05T19:22:16.221Z,18.44
2023-02-05T19:23:16.240Z,18.41
2023-02-05T19:24:16.304Z,18.37
2023-02-05T19:25:16.357Z,18.42
2023-02-05T19:26:16.451Z,18.42
2023-02-05T19:27:16.428Z,18.35
2023-02-05T19:28:16.540Z,18.38
2023-02-05T19:29:16.565Z,18.42
2023-02-05T19:30:16.616Z,18.30
2023-02-05T19:31:16.736Z,18.44
2023-02-05T19:32:16.755Z,18.44
2023-02-05T19:33:16.808Z,18.44
2023-02-05T19:34:16.871Z,18.39
2023-02-05T19:35:16.968Z,18.37
2023-02-05T19:36:16.992Z,18.41
2023-02-05T19:37:17.057Z,18.35
2023-02-05T19:38:17.099Z,18.39
2023-02-05T19:39:17.170Z,18.51
2023-02-05T19:40:17.235Z,18.38
2023-02-05T19:41:17.372Z,18.42
2023-02-05T19:42:17.380Z,18.37
2023-02-05T19:43:17.480Z,18.44
2023-02-05T19:44:17.533Z,18.39
2023-02-05T19:45:17.612Z,18.39
2023-02-05T19:46:17.694Z,18.39
2023-02-05T19:47:17.706Z,18.41
2023-02-05T19:48:17.713Z,18.41
2023-02-05T19:49:17.776Z,18.41
2023-02-05T19:50:17.842Z,18.41
2023-02-05T19:51:17.866Z,18.41
2023-02-05T19:52:17.942Z,18.38
2023-02-05T19:53:18.024Z,18.37
2023-02-05T19:54:20.567Z,18.40
2023-02-05T19:55:18.077Z,18.44
2023-02-05T19:56:18.141Z,18.35
2023-02-05T19:57:18.159Z,18.38
2023-02-05T19:58:18.150Z,18.33
2023-02-05T19:59:18.193Z,18.38
2023-02-05T20:00:18.243Z,18.33
2023-02-05T20:01:18.286Z,18.35
2023-02-05T20:02:18.305Z,18.35
2023-02-05T20:03:18.293Z,18.39
2023-02-05T20:04:18.326Z,18.39
2023-02-05T20:05:18.464Z,18.35
2023-02-05T20:06:18.413Z,18.39
2023-02-05T20:07:18.428Z,18.32
2023-02-05T20:08:18.471Z,18.41
2023-02-05T20:09:18.463Z,18.39
2023-02-05T20:10:18.457Z,18.33
2023-02-05T20:11:18.506Z,18.32
2023-02-05T20:14:18.530Z,18.39
2023-02-05T20:15:18.570Z,18.35
2023-02-05T20:16:19.640Z,18.35
2023-02-05T20:17:18.580Z,18.45
2023-02-05T20:18:18.584Z,18.38
2023-02-05T20:19:18.615Z,18.44
2023-02-05T20:20:32.643Z,18.35
2023-02-05T20:22:18.677Z,18.35
2023-02-05T20:23:18.679Z,18.35
2023-02-05T20:24:18.695Z,18.37
2023-02-05T20:25:18.706Z,18.41
2023-02-05T20:26:18.729Z,18.41
2023-02-05T20:27:18.773Z,18.35
2023-02-05T20:28:18.823Z,18.42
2023-02-05T20:29:18.788Z,18.38
2023-02-05T20:30:18.800Z,18.41
2023-02-05T20:31:18.975Z,18.48
2023-02-05T20:32:18.851Z,18.38
2023-02-05T20:33:18.889Z,18.44
2023-02-05T20:34:18.924Z,18.37
2023-02-05T20:35:18.913Z,18.30
2023-02-05T20:36:18.919Z,18.50
2023-02-05T20:37:18.985Z,18.41
2023-02-05T20:38:19.043Z,18.37
2023-02-05T20:39:19.086Z,18.37
2023-02-05T20:40:19.144Z,18.30
2023-02-05T20:41:19.194Z,18.29